Time;durP1;ratioP1;P1;durP2;ratioP2;P2;SDS_P1;SDS_P2;PMS_P1;PMS_P2;Temp;Humidity;BMP_temperature;BMP_pressure;BME280_temperature;BME280_humidity;BME280_pressure;Samples;Min_cycle;Max_cycle;Signal;HPM_P1;HPM_P2
2020/12/13 00:03:26;;;;;;;34;28.7;;;;;;;-0.29;88.46484;97971.48;;;;
2020/12/13 00:13:23;;;;;;;51.7;33.5;;;;;;;-0.45;89.29688;97988.3;;;;
2020/12/13 00:23:21;;;;;;;40.9;32;;;;;;;-0.61;90.06445;97995.28;;;;
2020/12/13 00:33:19;;;;;;;46.7;31;;;;;;;-0.54;89.5957;98017.05;;;;
2020/12/13 00:43:16;;;;;;;47.7;30.9;;;;;;;-0.66;90.21777;98009.25;;;;
2020/12/13 00:53:14;;;;;;;41.1;30.4;;;;;;;-0.55;89.83496;98023.39;;;;
2020/12/13 01:03:12;;;;;;;39.8;27.2;;;;;;;-0.33;89.38672;98018.04;;;;
2020/12/13 01:13:09;;;;;;;51.2;33;;;;;;;-0.38;89.2041;98029.38;;;;
2020/12/13 01:23:08;;;;;;;37.4;24.6;;;;;;;-0.33;89.01563;98032.08;;;;
2020/12/13 01:33:05;;;;;;;28.1;23.2;;;;;;;-0.22;88.62402;98028.48;;;;
2020/12/13 01:43:02;;;;;;;36.9;29.1;;;;;;;-0.33;89.2002;98039.22;;;;
2020/12/13 01:53:14;;;;;;;20.2;13;;;;;;;-0.13;88.51074;98026.96;;;;
2020/12/13 02:03:01;;;;;;;21.6;16;;;;;;;-0.04;88.57324;98033.41;;;;
2020/12/13 02:12:56;;;;;;;23.8;16.6;;;;;;;-0.03;88.50879;98039.48;;;;
2020/12/13 02:22:53;;;;;;;16.9;12.1;;;;;;;0.08;88.1123;98040.36;;;;
2020/12/13 02:32:53;;;;;;;16.7;13;;;;;;;0.1;87.83301;98047.03;;;;
2020/12/13 02:42:49;;;;;;;23.1;19.4;;;;;;;0.06;87.9248;98043.28;;;;
2020/12/13 02:52:49;;;;;;;13.8;10.2;;;;;;;0.08;87.8291;98049.11;;;;
2020/12/13 03:02:44;;;;;;;16.9;13;;;;;;;0.12;87.61719;98062.66;;;;
2020/12/13 03:12:45;;;;;;;17.8;12.9;;;;;;;0.23;87.125;98061.69;;;;
2020/12/13 03:22:40;;;;;;;17.2;11.6;;;;;;;0.22;87.1543;98078.63;;;;
2020/12/13 03:32:38;;;;;;;18.6;11.6;;;;;;;0.14;87.0957;98074.59;;;;
2020/12/13 03:42:36;;;;;;;20.1;12.4;;;;;;;0.09;87.46875;98090.45;;;;
2020/12/13 03:52:34;;;;;;;16.4;11.5;;;;;;;0.1;87.2627;98102.66;;;;
2020/12/13 04:02:31;;;;;;;20.6;12.8;;;;;;;0.18;87.04785;98104.03;;;;
2020/12/13 04:12:29;;;;;;;18.8;13.6;;;;;;;0.17;86.90137;98115.7;;;;
2020/12/13 04:22:27;;;;;;;16.7;13.4;;;;;;;0.21;86.68066;98109.63;;;;
2020/12/13 04:32:25;;;;;;;16.7;12.8;;;;;;;0.17;86.91504;98121.8;;;;
2020/12/13 04:42:23;;;;;;;17.2;12.4;;;;;;;0.18;87.20215;98114.63;;;;
2020/12/13 04:52:21;;;;;;;21.8;14.2;;;;;;;0.03;87.66504;98112.66;;;;
2020/12/13 05:02:21;;;;;;;20.2;13;;;;;;;0.1;87.76758;98123.86;;;;
2020/12/13 05:12:16;;;;;;;21.8;14.3;;;;;;;0.09;87.22754;98138.14;;;;
2020/12/13 05:22:14;;;;;;;19.3;13.8;;;;;;;0.02;87.29199;98156.09;;;;
2020/12/13 05:32:12;;;;;;;20.2;11.8;;;;;;;0;87.33008;98152.91;;;;
2020/12/13 05:42:11;;;;;;;17.3;12.3;;;;;;;-0.15;87.59668;98164.13;;;;
2020/12/13 05:52:08;;;;;;;18.2;13.3;;;;;;;-0.08;87.35742;98164.73;;;;
2020/12/13 06:02:05;;;;;;;16.2;11.9;;;;;;;-0.18;87.57813;98183.17;;;;
2020/12/13 06:12:04;;;;;;;19.7;13.4;;;;;;;-0.16;87.86719;98180.26;;;;
2020/12/13 06:22:01;;;;;;;19.8;14.2;;;;;;;-0.14;87.8623;98192.2;;;;
2020/12/13 06:31:59;;;;;;;17.4;12.9;;;;;;;-0.09;87.80566;98194.11;;;;
2020/12/13 06:41:56;;;;;;;22.2;15.3;;;;;;;-0.15;87.96973;98201.2;;;;
2020/12/13 06:51:54;;;;;;;17.2;11.6;;;;;;;-0.16;88.4375;98204.89;;;;
2020/12/13 07:01:52;;;;;;;20.4;14.6;;;;;;;-0.24;88.23438;98215.91;;;;
2020/12/13 07:11:50;;;;;;;15.1;11.4;;;;;;;-0.22;88.21777;98229.72;;;;
2020/12/13 07:21:49;;;;;;;20.2;12.9;;;;;;;-0.15;87.95703;98240.13;;;;
2020/12/13 07:31:47;;;;;;;14.5;9.2;;;;;;;0.03;87.22559;98244.31;;;;
2020/12/13 07:41:47;;;;;;;16.8;12.6;;;;;;;0.07;87.69434;98250.72;;;;
2020/12/13 07:51:41;;;;;;;16;13.1;;;;;;;0.13;87.33301;98263.77;;;;
2020/12/13 08:01:38;;;;;;;21.5;13.9;;;;;;;0.26;86.60352;98268.68;;;;
2020/12/13 08:11:36;;;;;;;13;10.7;;;;;;;0.36;86.2168;98270.63;;;;
2020/12/13 08:21:34;;;;;;;14.3;12.1;;;;;;;0.41;86.18359;98278.65;;;;
2020/12/13 08:31:32;;;;;;;19.5;13.9;;;;;;;0.49;85.99121;98275.53;;;;
2020/12/13 08:41:30;;;;;;;14.5;13;;;;;;;0.56;85.75293;98297.34;;;;
2020/12/13 08:51:37;;;;;;;20;13.8;;;;;;;0.68;85.51172;98311.27;;;;
2020/12/13 09:01:27;;;;;;;16.5;12.8;;;;;;;0.78;84.40918;98307.91;;;;
2020/12/13 09:11:24;;;;;;;19.9;13.9;;;;;;;0.71;84.68164;98309.96;;;;
2020/12/13 09:21:21;;;;;;;20.7;15;;;;;;;0.74;84.85156;98314.76;;;;
2020/12/13 09:31:19;;;;;;;28.4;19;;;;;;;0.66;84.50781;98316;;;;
2020/12/13 09:41:17;;;;;;;23.6;16.3;;;;;;;0.73;85.07129;98306;;;;
2020/12/13 09:51:15;;;;;;;21.6;15.6;;;;;;;0.55;84.60547;98301.06;;;;
2020/12/13 10:01:13;;;;;;;23.7;18.5;;;;;;;0.61;84.90234;98317.81;;;;
2020/12/13 10:11:11;;;;;;;23.5;17.9;;;;;;;0.44;85.15625;98323.21;;;;
2020/12/13 10:21:09;;;;;;;25.4;17.7;;;;;;;0.37;85.84668;98310.16;;;;
2020/12/13 10:31:10;;;;;;;23.6;16;;;;;;;0.42;85.44922;98320.8;;;;
2020/12/13 10:41:04;;;;;;;20.8;16.1;;;;;;;0.43;85.13184;98324.25;;;;
2020/12/13 10:51:02;;;;;;;21.8;16.1;;;;;;;0.27;86.07813;98327.79;;;;
2020/12/13 11:01:01;;;;;;;19.7;14.6;;;;;;;0.33;85.7832;98321.49;;;;
2020/12/13 11:10:58;;;;;;;24.2;16.8;;;;;;;0.3;86.11621;98329.94;;;;
2020/12/13 11:20:58;;;;;;;26.8;19.5;;;;;;;0.31;86.22949;98315.65;;;;
2020/12/13 11:30:54;;;;;;;25.2;19;;;;;;;0.22;86.39648;98322.41;;;;
2020/12/13 11:40:52;;;;;;;25.1;18.4;;;;;;;0.25;86.39258;98332.52;;;;
2020/12/13 11:50:50;;;;;;;23.1;16.6;;;;;;;0.4;86.11426;98340.66;;;;
2020/12/13 12:00:49;;;;;;;24.7;19.3;;;;;;;0.3;86.22754;98344;;;;
2020/12/13 12:10:49;;;;;;;25.5;17.1;;;;;;;0.45;85.71973;98349.45;;;;
2020/12/13 12:20:46;;;;;;;29.8;21.1;;;;;;;0.34;85.92773;98350.41;;;;
2020/12/13 12:30:41;;;;;;;32.1;21.8;;;;;;;0.31;86.08691;98363.36;;;;
2020/12/13 12:40:39;;;;;;;38.4;30.2;;;;;;;0.35;86.42383;98364.44;;;;
2020/12/13 12:50:37;;;;;;;37;25.8;;;;;;;0.26;86.74609;98379.98;;;;
2020/12/13 13:00:44;;;;;;;40.3;29.5;;;;;;;0.28;86.56445;98380.53;;;;
2020/12/13 13:10:33;;;;;;;34.9;27.2;;;;;;;0.05;87.36328;98380.77;;;;
2020/12/13 13:20:30;;;;;;;32.3;22.3;;;;;;;0.13;87.08105;98401.55;;;;
2020/12/13 13:30:29;;;;;;;37.4;29.5;;;;;;;0.14;87.12695;98402.35;;;;
2020/12/13 13:40:26;;;;;;;33.5;24.1;;;;;;;0.14;87.19238;98407.66;;;;
2020/12/13 13:50:24;;;;;;;30;26.8;;;;;;;0.05;87.31738;98419.7;;;;
2020/12/13 14:00:21;;;;;;;33.5;27.9;;;;;;;0.02;87.35742;98431.59;;;;
2020/12/13 14:10:19;;;;;;;29.8;26.1;;;;;;;0.1;87.40527;98425.89;;;;
2020/12/13 14:20:17;;;;;;;28.1;24.9;;;;;;;0.04;87.37207;98437.44;;;;
2020/12/13 14:30:15;;;;;;;32.7;22.8;;;;;;;0.07;87.29004;98439.59;;;;
2020/12/13 14:40:13;;;;;;;27;22.1;;;;;;;0.04;87.50195;98457.82;;;;
2020/12/13 14:50:11;;;;;;;32;21.7;;;;;;;0.03;87.18164;98469.48;;;;
2020/12/13 15:00:11;;;;;;;30.3;21.7;;;;;;;0.15;87.4375;98470.98;;;;
2020/12/13 15:10:08;;;;;;;39.4;29.8;;;;;;;0.06;87.60449;98479.59;;;;
2020/12/13 15:20:04;;;;;;;33;27.5;;;;;;;0.11;87.29688;98483.11;;;;
2020/12/13 15:30:02;;;;;;;38.6;26.6;;;;;;;0.08;87.09375;98491.55;;;;
2020/12/13 15:40:03;;;;;;;42.5;29.7;;;;;;;0.05;86.97852;98497.33;;;;
2020/12/13 15:49:58;;;;;;;35.3;25.4;;;;;;;-0.11;87.73633;98504.25;;;;
2020/12/13 15:59:56;;;;;;;43.7;30.6;;;;;;;-0.05;87.57324;98516.53;;;;
2020/12/13 16:09:53;;;;;;;35.7;30;;;;;;;-0.06;87.38477;98514.91;;;;
2020/12/13 16:19:57;;;;;;;40.8;28.1;;;;;;;-0.36;87.50684;98503.02;;;;
2020/12/13 16:29:49;;;;;;;31.7;25.5;;;;;;;-0.33;87.4375;98516.58;;;;
2020/12/13 16:39:49;;;;;;;32.4;22.8;;;;;;;-0.24;87.22559;98538.97;;;;
2020/12/13 16:50:09;;;;;;;32.6;22.9;;;;;;;-0.28;87.51465;98537.86;;;;
2020/12/13 16:59:43;;;;;;;22.9;17.4;;;;;;;-0.25;87.26758;98547.97;;;;
2020/12/13 17:09:43;;;;;;;21.5;16.8;;;;;;;-0.33;87.15234;98548.35;;;;
2020/12/13 17:19:38;;;;;;;23.9;16.6;;;;;;;-0.22;86.92383;98552.8;;;;
2020/12/13 17:29:36;;;;;;;29.1;19.8;;;;;;;-0.18;86.72266;98561.88;;;;
2020/12/13 17:39:34;;;;;;;20.7;15.5;;;;;;;-0.11;86.14551;98567.82;;;;
2020/12/13 17:49:32;;;;;;;23.3;17.4;;;;;;;-0.16;86.68262;98573.02;;;;
2020/12/13 17:59:31;;;;;;;26.8;16.8;;;;;;;-0.16;86.47461;98580.96;;;;
2020/12/13 18:09:27;;;;;;;22.7;17.3;;;;;;;-0.04;86.43164;98578.27;;;;
2020/12/13 18:19:25;;;;;;;29.4;21.8;;;;;;;0.03;85.95215;98609.89;;;;
2020/12/13 18:29:24;;;;;;;34.7;26;;;;;;;0.05;86.20898;98607.8;;;;
2020/12/13 18:39:21;;;;;;;33;24.5;;;;;;;0.07;85.99414;98617.11;;;;
2020/12/13 18:49:18;;;;;;;31;24.2;;;;;;;0.11;85.95605;98628.03;;;;
2020/12/13 18:59:16;;;;;;;24.8;17.9;;;;;;;0.09;85.29492;98636.23;;;;
2020/12/13 19:09:14;;;;;;;25.4;21.2;;;;;;;0.1;85.74707;98647.64;;;;
2020/12/13 19:19:11;;;;;;;42.2;32.4;;;;;;;0.14;85.93066;98654.08;;;;
2020/12/13 19:29:09;;;;;;;41.3;29.7;;;;;;;-0.08;86.98438;98661.89;;;;
2020/12/13 19:39:07;;;;;;;47.9;33.3;;;;;;;0.02;86.8291;98661.27;;;;
2020/12/13 19:49:05;;;;;;;40.1;31.6;;;;;;;0.1;86.96582;98682.89;;;;
2020/12/13 19:59:03;;;;;;;43.8;31.9;;;;;;;0.16;86.63672;98691.73;;;;
2020/12/13 20:09:00;;;;;;;44.8;36.1;;;;;;;0.17;86.50879;98688.86;;;;
2020/12/13 21:18:49;;;;;;;24.8;17.1;;;;;;;0.21;86.35059;98713.03;;;;
2020/12/13 21:39:06;;;;;;;24.5;19.1;;;;;;;0.24;86.27051;98737.22;;;;
2020/12/13 21:48:45;;;;;;;29.8;23.9;;;;;;;0.26;86.06543;98736.96;;;;
2020/12/13 21:58:46;;;;;;;28.2;23.1;;;;;;;0.27;86.51758;98735.93;;;;
2020/12/13 22:28:31;;;;;;;40.6;28.9;;;;;;;0.36;86.34863;98745.09;;;;
2020/12/13 22:38:29;;;;;;;34.2;26.5;;;;;;;0.17;86.72559;98735.74;;;;
2020/12/13 22:48:27;;;;;;;36.6;26;;;;;;;0.2;86.66895;98744.03;;;;
2020/12/13 22:58:25;;;;;;;32.1;25.9;;;;;;;0.27;86.42969;98730.63;;;;
2020/12/13 23:08:22;;;;;;;35.9;31.1;;;;;;;0.32;86.33008;98758.02;;;;
2020/12/13 23:18:20;;;;;;;34.1;30.5;;;;;;;0.26;86.87793;98763.47;;;;
2020/12/13 23:28:18;;;;;;;40.7;34.5;;;;;;;0.25;87.12891;98764.5;;;;
2020/12/13 23:38:16;;;;;;;43.5;35;;;;;;;0.25;86.82129;98752.05;;;;
2020/12/13 23:48:14;;;;;;;33.2;25.2;;;;;;;0.28;86.34473;98759.53;;;;
2020/12/13 23:58:12;;;;;;;37.6;27.1;;;;;;;0.3;86.45898;98765.41;;;;
